createdAt,value
2023-02-23T00:02:41.454Z,40.90
2023-02-23T00:06:04.032Z,40.84
2023-02-23T00:09:35.375Z,40.82
2023-02-23T00:13:05.218Z,40.82
2023-02-23T00:16:29.610Z,40.79
2023-02-23T00:19:51.457Z,40.96
2023-02-23T00:23:17.252Z,40.89
2023-02-23T00:26:40.095Z,40.98
2023-02-23T00:30:03.686Z,40.98
2023-02-23T00:33:25.486Z,41.06
2023-02-23T00:36:55.033Z,41.06
2023-02-23T00:40:18.425Z,41.19
2023-02-23T00:43:48.032Z,41.16
2023-02-23T00:47:09.680Z,41.12
2023-02-23T00:50:34.925Z,41.21
2023-02-23T00:54:03.722Z,41.21
2023-02-23T00:57:33.782Z,41.32
2023-02-23T01:00:55.657Z,41.30
2023-02-23T01:04:19.574Z,41.28
2023-02-23T01:07:49.270Z,41.38
2023-02-23T01:11:17.341Z,41.19
2023-02-23T01:14:39.410Z,41.31
2023-02-23T01:18:01.237Z,41.36
2023-02-23T01:21:26.058Z,41.43
2023-02-23T01:24:47.852Z,41.40
2023-02-23T01:28:11.187Z,41.46
2023-02-23T01:31:33.115Z,41.56
2023-02-23T01:34:54.949Z,41.51
2023-02-23T01:38:16.733Z,41.54
2023-02-23T01:41:39.257Z,41.60
2023-02-23T01:45:37.829Z,41.55
2023-02-23T01:49:00.242Z,41.61
2023-02-23T01:52:22.017Z,41.55
2023-02-23T01:55:44.326Z,41.61
2023-02-23T01:59:07.519Z,41.59
2023-02-23T02:02:33.470Z,41.56
2023-02-23T02:05:56.902Z,41.59
2023-02-23T02:09:20.562Z,41.63
2023-02-23T02:12:58.961Z,41.69
2023-02-23T02:16:43.615Z,41.81
2023-02-23T02:20:32.900Z,41.78
2023-02-23T02:24:13.661Z,41.73
2023-02-23T02:27:50.465Z,42.02
2023-02-23T02:31:21.062Z,41.87
2023-02-23T02:34:49.501Z,42.02
2023-02-23T02:38:35.445Z,42.03
2023-02-23T02:42:08.929Z,42.17
2023-02-23T02:45:44.957Z,41.99
2023-02-23T02:49:24.242Z,42.14
2023-02-23T02:52:56.352Z,42.22
2023-02-23T02:56:20.317Z,42.28
2023-02-23T03:00:04.476Z,42.36
2023-02-23T03:03:52.628Z,42.29
2023-02-23T03:07:44.442Z,42.15
2023-02-23T03:11:33.370Z,42.31
2023-02-23T03:15:41.852Z,42.42
2023-02-23T03:19:33.836Z,42.53
2023-02-23T03:23:19.377Z,42.65
2023-02-23T03:27:04.744Z,42.44
2023-02-23T03:31:25.788Z,42.51
2023-02-23T03:35:12.472Z,42.69
2023-02-23T03:39:17.553Z,42.63
2023-02-23T03:43:01.083Z,42.61
2023-02-23T03:46:43.087Z,42.88
2023-02-23T03:50:42.177Z,42.92
2023-02-23T03:54:29.841Z,42.76
2023-02-23T03:58:15.192Z,43.03
2023-02-23T04:01:57.662Z,43.02
2023-02-23T04:05:39.382Z,42.98
2023-02-23T04:09:22.326Z,42.83
2023-02-23T04:13:13.869Z,42.93
2023-02-23T04:16:36.035Z,42.95
2023-02-23T04:20:00.368Z,42.95
2023-02-23T04:23:25.834Z,42.99
2023-02-23T04:26:47.717Z,43.07
2023-02-23T04:30:11.968Z,43.29
2023-02-23T04:33:33.826Z,43.13
2023-02-23T04:37:02.712Z,43.28
2023-02-23T04:40:31.581Z,43.24
2023-02-23T04:43:59.162Z,43.38
2023-02-23T04:47:21.063Z,43.37
2023-02-23T04:50:42.889Z,43.42
2023-02-23T04:54:12.380Z,43.42
2023-02-23T04:57:35.349Z,43.30
2023-02-23T05:01:09.934Z,43.50
2023-02-23T05:04:35.395Z,43.44
2023-02-23T05:08:06.131Z,43.53
2023-02-23T05:11:27.961Z,43.66
2023-02-23T05:14:49.794Z,43.71
2023-02-23T05:18:13.159Z,43.60
2023-02-23T05:21:39.091Z,43.58
2023-02-23T05:25:08.848Z,43.63
2023-02-23T05:28:31.151Z,43.66
2023-02-23T05:31:56.055Z,43.83
2023-02-23T05:35:18.098Z,43.83
2023-02-23T05:38:40.973Z,43.76
2023-02-23T05:42:04.076Z,43.82
2023-02-23T05:45:26.114Z,43.97
2023-02-23T05:50:54.411Z,44.03
2023-02-23T05:54:16.253Z,44.03
2023-02-23T05:57:43.681Z,43.89
2023-02-23T06:01:05.520Z,43.99
2023-02-23T06:04:29.455Z,44.01
2023-02-23T06:07:52.445Z,43.96
2023-02-23T06:11:44.653Z,43.91
2023-02-23T06:15:11.825Z,43.94
2023-02-23T06:18:33.840Z,43.96
2023-02-23T06:21:55.668Z,43.90
2023-02-23T06:25:19.895Z,43.95
2023-02-23T06:28:44.502Z,43.97
2023-02-23T06:32:06.469Z,43.67
2023-02-23T06:35:40.717Z,43.81
2023-02-23T06:39:09.165Z,43.45
2023-02-23T06:42:31.129Z,43.68
2023-02-23T06:45:54.356Z,43.49
2023-02-23T06:49:16.723Z,43.45
2023-02-23T06:52:43.987Z,43.40
2023-02-23T06:56:06.368Z,43.33
2023-02-23T06:59:28.187Z,42.98
2023-02-23T07:02:59.012Z,43.06
2023-02-23T07:06:21.035Z,42.82
2023-02-23T07:09:43.039Z,42.87
2023-02-23T07:13:04.846Z,42.63
2023-02-23T07:16:30.272Z,42.60
2023-02-23T07:19:53.786Z,42.35
2023-02-23T07:23:19.520Z,42.36
2023-02-23T07:26:43.803Z,42.10
2023-02-23T07:30:06.304Z,42.14
2023-02-23T07:33:28.075Z,41.79
2023-02-23T07:36:56.406Z,41.80
2023-02-23T07:40:19.462Z,41.47
2023-02-23T07:43:42.468Z,41.59
2023-02-23T07:47:04.321Z,41.22
2023-02-23T07:50:26.998Z,41.13
2023-02-23T07:53:49.593Z,40.89
2023-02-23T07:57:14.300Z,40.84
2023-02-23T08:00:38.981Z,40.68
2023-02-23T08:04:00.969Z,40.27
2023-02-23T08:07:22.987Z,39.95
2023-02-23T08:10:44.813Z,39.43
2023-02-23T08:14:06.710Z,38.93
2023-02-23T08:17:29.294Z,37.62
2023-02-23T08:20:51.420Z,36.58
2023-02-23T08:24:16.206Z,35.54
2023-02-23T08:27:38.986Z,34.84
2023-02-23T08:31:00.925Z,34.40
2023-02-23T08:34:23.436Z,33.94
2023-02-23T08:37:50.820Z,33.78
2023-02-23T08:41:12.772Z,33.29
2023-02-23T08:44:34.683Z,33.14
2023-02-23T08:47:56.773Z,32.83
2023-02-23T08:51:19.416Z,32.36
2023-02-23T08:54:41.556Z,31.84
2023-02-23T08:58:03.413Z,31.38
2023-02-23T09:01:25.619Z,31.17
2023-02-23T09:04:47.785Z,30.85
2023-02-23T09:08:09.831Z,30.61
2023-02-23T09:11:31.731Z,30.26
2023-02-23T09:14:53.933Z,29.73
2023-02-23T09:18:17.483Z,29.03
2023-02-23T09:21:39.317Z,28.34
2023-02-23T09:25:01.242Z,27.80
2023-02-23T09:28:23.090Z,27.28
2023-02-23T09:31:45.106Z,26.77
2023-02-23T09:35:07.331Z,26.35
2023-02-23T09:38:36.529Z,26.23
2023-02-23T09:42:19.687Z,26.10
2023-02-23T09:45:42.941Z,26.09
2023-02-23T09:49:12.408Z,25.99
2023-02-23T09:52:41.623Z,25.96
2023-02-23T09:56:19.036Z,25.92
2023-02-23T09:59:40.939Z,26.63
2023-02-23T10:03:08.807Z,27.32
2023-02-23T10:06:30.676Z,27.07
2023-02-23T10:10:04.383Z,26.64
2023-02-23T10:13:54.201Z,26.14
2023-02-23T10:17:30.398Z,25.83
2023-02-23T10:21:01.294Z,25.15
2023-02-23T10:24:37.092Z,24.62
2023-02-23T10:28:00.136Z,24.12
2023-02-23T10:31:41.386Z,23.87
2023-02-23T10:35:11.214Z,23.88
2023-02-23T10:38:32.964Z,23.37
2023-02-23T10:41:55.368Z,23.24
2023-02-23T10:45:23.150Z,22.95
2023-02-23T10:48:45.547Z,22.56
2023-02-23T10:52:13.700Z,22.35
2023-02-23T10:55:36.046Z,22.33
2023-02-23T10:58:58.915Z,22.02
2023-02-23T11:02:24.608Z,22.02
2023-02-23T11:05:50.629Z,21.93
2023-02-23T11:09:44.548Z,22.08
2023-02-23T11:13:23.272Z,21.96
2023-02-23T11:16:45.229Z,22.37
2023-02-23T11:20:37.107Z,22.57
2023-02-23T11:24:01.860Z,22.54
2023-02-23T11:27:26.115Z,23.13
2023-02-23T11:30:49.233Z,23.35
2023-02-23T11:34:21.961Z,23.82
2023-02-23T11:37:43.861Z,24.06
2023-02-23T11:41:24.291Z,24.43
2023-02-23T11:45:03.283Z,24.54
2023-02-23T11:48:32.611Z,24.71
2023-02-23T11:51:54.873Z,24.79
2023-02-23T11:55:19.765Z,24.98
2023-02-23T11:58:47.308Z,24.99
2023-02-23T12:02:30.202Z,24.89
2023-02-23T12:05:57.867Z,22.66
2023-02-23T12:09:30.804Z,23.65
2023-02-23T12:12:58.783Z,25.40
2023-02-23T12:16:28.721Z,26.63
2023-02-23T12:20:11.262Z,27.68
2023-02-23T12:23:34.961Z,28.33
2023-02-23T12:27:06.339Z,28.84
2023-02-23T12:30:37.322Z,29.56
2023-02-23T12:34:07.666Z,30.57
2023-02-23T12:37:37.189Z,31.29
2023-02-23T12:41:08.019Z,31.55
2023-02-23T12:44:40.666Z,31.75
2023-02-23T12:48:40.702Z,33.10
2023-02-23T12:52:13.737Z,32.91
2023-02-23T12:56:14.460Z,32.48
2023-02-23T12:59:52.176Z,31.96
2023-02-23T13:03:36.730Z,31.63
2023-02-23T13:07:38.373Z,31.21
2023-02-23T13:11:09.148Z,30.87
2023-02-23T13:14:49.066Z,30.72
2023-02-23T13:18:15.784Z,30.47
2023-02-23T13:21:43.573Z,30.36
2023-02-23T13:25:20.427Z,30.28
2023-02-23T13:28:56.709Z,30.18
2023-02-23T13:32:21.993Z,30.18
2023-02-23T13:35:44.225Z,30.25
2023-02-23T13:39:30.515Z,30.20
2023-02-23T13:42:59.052Z,30.25
2023-02-23T13:46:48.449Z,30.13
2023-02-23T13:50:22.598Z,30.03
2023-02-23T13:53:47.948Z,30.04
2023-02-23T13:57:18.313Z,30.01
2023-02-23T14:00:40.134Z,30.13
2023-02-23T14:04:12.827Z,30.17
2023-02-23T14:07:40.220Z,30.23
2023-02-23T14:11:02.943Z,30.26
2023-02-23T14:14:30.950Z,30.42
2023-02-23T14:18:00.946Z,30.38
2023-02-23T14:21:29.412Z,30.49
2023-02-23T14:25:29.025Z,30.53
2023-02-23T14:29:29.649Z,30.61
2023-02-23T14:32:55.248Z,30.72
2023-02-23T14:36:26.856Z,30.75
2023-02-23T14:39:50.768Z,30.85
2023-02-23T14:43:41.648Z,30.87
2023-02-23T14:47:27.784Z,31.13
2023-02-23T14:50:49.818Z,31.25
2023-02-23T14:54:16.705Z,31.18
2023-02-23T14:57:41.073Z,31.30
2023-02-23T15:01:02.967Z,31.49
2023-02-23T15:04:27.684Z,31.57
2023-02-23T15:07:51.986Z,31.91
2023-02-23T15:11:14.734Z,32.01
2023-02-23T15:14:39.002Z,32.16
2023-02-23T15:18:03.337Z,32.29
2023-02-23T15:21:25.250Z,32.45
2023-02-23T15:24:50.238Z,32.61
2023-02-23T15:28:23.488Z,32.70
2023-02-23T15:31:55.302Z,32.76
2023-02-23T15:35:17.590Z,33.04
2023-02-23T15:38:50.945Z,33.22
2023-02-23T15:42:21.495Z,33.43
2023-02-23T15:45:50.330Z,33.60
2023-02-23T15:49:14.695Z,33.91
2023-02-23T15:52:45.312Z,33.96
2023-02-23T15:56:20.824Z,34.17
2023-02-23T15:59:49.225Z,34.28
2023-02-23T16:03:31.317Z,34.46
2023-02-23T16:07:07.270Z,34.53
2023-02-23T16:10:29.570Z,34.67
2023-02-23T16:14:24.140Z,34.75
2023-02-23T16:17:48.233Z,35.09
2023-02-23T16:21:44.586Z,35.36
2023-02-23T16:25:11.375Z,35.70
2023-02-23T16:28:34.304Z,35.76
2023-02-23T16:32:00.633Z,36.06
2023-02-23T16:35:22.769Z,36.19
2023-02-23T16:42:43.584Z,36.55
2023-02-23T16:46:05.653Z,36.53
2023-02-23T16:49:29.966Z,36.94
2023-02-23T16:52:55.273Z,36.79
2023-02-23T16:56:21.036Z,37.06
2023-02-23T16:59:43.133Z,37.33
2023-02-23T17:03:15.610Z,37.46
2023-02-23T17:06:38.334Z,37.72
2023-02-23T17:10:00.444Z,37.77
2023-02-23T17:13:24.706Z,37.74
2023-02-23T17:16:46.677Z,38.06
2023-02-23T17:20:15.662Z,37.99
2023-02-23T17:23:51.269Z,38.15
2023-02-23T17:27:13.198Z,38.30
2023-02-23T17:30:36.842Z,38.44
2023-02-23T17:33:59.328Z,38.50
2023-02-23T17:37:37.581Z,38.63
2023-02-23T17:41:03.826Z,38.77
2023-02-23T17:44:34.280Z,38.99
2023-02-23T17:48:05.010Z,39.04
2023-02-23T17:51:26.889Z,39.14
2023-02-23T17:54:48.889Z,39.29
2023-02-23T17:58:10.899Z,39.33
2023-02-23T18:01:32.856Z,39.57
2023-02-23T18:04:54.989Z,39.63
2023-02-23T18:08:20.266Z,39.61
2023-02-23T18:11:42.248Z,39.93
2023-02-23T18:15:04.610Z,39.99
2023-02-23T18:18:26.898Z,40.12
2023-02-23T18:21:48.741Z,40.31
2023-02-23T18:25:20.902Z,40.56
2023-02-23T18:28:44.864Z,40.59
2023-02-23T18:32:10.800Z,40.62
2023-02-23T18:35:38.417Z,40.77
2023-02-23T18:39:01.274Z,40.80
2023-02-23T18:42:23.224Z,40.96
2023-02-23T18:45:45.068Z,41.23
2023-02-23T18:49:07.262Z,41.42
2023-02-23T18:52:29.259Z,41.23
2023-02-23T18:55:51.138Z,41.37
2023-02-23T18:59:13.462Z,41.65
2023-02-23T19:02:35.320Z,41.56
2023-02-23T19:06:12.757Z,41.59
2023-02-23T19:09:40.967Z,41.73
2023-02-23T19:13:02.871Z,41.94
2023-02-23T19:16:31.734Z,42.06
2023-02-23T19:20:00.938Z,42.00
2023-02-23T19:23:22.996Z,42.25
2023-02-23T19:26:54.442Z,42.70
2023-02-23T19:30:16.513Z,42.60
2023-02-23T19:33:38.584Z,42.87
2023-02-23T19:37:00.428Z,43.05
2023-02-23T19:40:24.049Z,43.07
2023-02-23T19:43:45.957Z,43.14
2023-02-23T19:47:09.632Z,43.15
2023-02-23T19:50:35.915Z,42.87
2023-02-23T19:53:59.214Z,42.93
2023-02-23T19:57:21.262Z,42.82
2023-02-23T20:00:43.192Z,42.72
2023-02-23T20:04:10.891Z,42.68
2023-02-23T20:07:32.917Z,42.63
2023-02-23T20:11:06.113Z,42.52
2023-02-23T20:14:32.684Z,42.59
2023-02-23T20:17:54.608Z,42.52
2023-02-23T20:21:21.510Z,42.40
2023-02-23T20:24:49.021Z,42.52
2023-02-23T20:28:11.025Z,42.46
2023-02-23T20:31:35.469Z,42.31
2023-02-23T20:35:03.522Z,42.49
2023-02-23T20:38:25.495Z,42.46
2023-02-23T20:42:04.201Z,42.40
2023-02-23T20:45:29.747Z,42.50
2023-02-23T20:48:56.834Z,42.51
2023-02-23T20:52:18.824Z,42.51
2023-02-23T20:55:47.372Z,42.58
2023-02-23T20:59:11.340Z,42.56
2023-02-23T21:02:33.186Z,42.44
2023-02-23T21:05:55.053Z,42.85
2023-02-23T21:09:23.007Z,42.81
2023-02-23T21:12:47.205Z,42.60
2023-02-23T21:16:32.387Z,42.66
2023-02-23T21:19:54.481Z,42.86
2023-02-23T21:23:17.931Z,43.01
2023-02-23T21:26:40.013Z,43.95
2023-02-23T21:30:02.589Z,43.74
2023-02-23T21:33:26.597Z,43.61
2023-02-23T21:36:51.424Z,43.71
2023-02-23T21:40:19.336Z,43.91
2023-02-23T21:43:43.055Z,43.70
2023-02-23T21:47:07.195Z,43.69
2023-02-23T21:50:32.109Z,43.77
2023-02-23T21:53:58.055Z,43.73
2023-02-23T21:57:22.980Z,43.80
2023-02-23T22:00:46.094Z,43.68
2023-02-23T22:04:10.761Z,43.66
2023-02-23T22:07:32.785Z,43.86
2023-02-23T22:10:54.633Z,43.76
2023-02-23T22:14:18.296Z,43.70
2023-02-23T22:17:40.353Z,43.67
2023-02-23T22:21:05.547Z,43.74
2023-02-23T22:24:27.721Z,43.66
2023-02-23T22:27:49.572Z,43.81
2023-02-23T22:31:13.711Z,43.97
2023-02-23T22:34:35.834Z,43.82
2023-02-23T22:38:00.437Z,43.85
2023-02-23T22:41:22.417Z,43.96
2023-02-23T22:44:44.487Z,44.04
2023-02-23T22:48:09.482Z,43.88
2023-02-23T22:51:35.112Z,43.78
2023-02-23T22:55:29.346Z,44.06
2023-02-23T22:58:55.941Z,43.87
2023-02-23T23:02:17.908Z,44.28
2023-02-23T23:05:39.716Z,43.97
2023-02-23T23:09:01.546Z,44.18
2023-02-23T23:12:27.921Z,44.03
2023-02-23T23:15:51.738Z,44.11
2023-02-23T23:19:24.038Z,44.09
2023-02-23T23:22:47.196Z,44.06
2023-02-23T23:26:14.881Z,44.23
2023-02-23T23:29:42.023Z,44.40
2023-02-23T23:33:03.954Z,44.33
2023-02-23T23:36:32.203Z,44.21
2023-02-23T23:39:59.396Z,44.39
2023-02-23T23:43:22.971Z,44.39
2023-02-23T23:46:45.857Z,44.44
2023-02-23T23:50:10.927Z,44.38
2023-02-23T23:54:26.210Z,44.34
2023-02-23T23:57:50.133Z,44.45
